createdAt,value
2019-03-02T00:02:24.181Z,4.40
2019-03-02T00:04:49.391Z,4.50
2019-03-02T00:07:16.028Z,4.40
2019-03-02T00:09:43.740Z,4.40
2019-03-02T00:12:10.037Z,4.50
2019-03-02T00:14:36.387Z,4.60
2019-03-02T00:17:02.978Z,4.70
2019-03-02T00:19:29.593Z,4.60
2019-03-02T00:21:55.909Z,4.70
2019-03-02T00:24:22.235Z,4.70
2019-03-02T00:26:48.540Z,4.80
2019-03-02T00:29:14.861Z,4.80
2019-03-02T00:31:41.439Z,4.80
2019-03-02T00:34:07.723Z,4.80
2019-03-02T00:36:34.043Z,4.70
2019-03-02T00:39:01.640Z,4.70
2019-03-02T00:41:30.242Z,4.70
2019-03-02T00:43:59.822Z,4.60
2019-03-02T00:46:24.896Z,4.70
2019-03-02T00:48:51.517Z,4.70
2019-03-02T00:51:19.103Z,4.80
2019-03-02T00:53:45.435Z,4.80
2019-03-02T00:56:12.091Z,4.90
2019-03-02T00:58:38.708Z,4.90
2019-03-02T01:01:04.974Z,4.60
2019-03-02T01:03:31.302Z,4.30
2019-03-02T01:05:57.603Z,4.30
2019-03-02T01:08:24.168Z,4.30
2019-03-02T01:10:50.757Z,4.20
2019-03-02T01:13:19.829Z,4.30
2019-03-02T01:15:45.383Z,4.20
2019-03-02T01:18:11.870Z,4.10
2019-03-02T01:20:38.164Z,4.10
2019-03-02T01:23:04.478Z,4.30
2019-03-02T01:25:30.804Z,4.20
2019-03-02T01:27:57.375Z,4.10
2019-03-02T01:30:26.608Z,3.90
2019-03-02T01:32:52.649Z,3.90
2019-03-02T01:35:21.533Z,3.80
2019-03-02T01:37:48.256Z,3.90
2019-03-02T01:40:14.763Z,3.90
2019-03-02T01:42:41.435Z,3.90
2019-03-02T01:45:11.245Z,3.90
2019-03-02T01:47:37.579Z,3.90
2019-03-02T01:50:08.606Z,3.90
2019-03-02T01:52:36.397Z,3.90
2019-03-02T01:55:06.215Z,3.80
2019-03-02T01:57:32.771Z,3.90
2019-03-02T01:59:59.218Z,3.90
2019-03-02T02:02:25.534Z,3.90
2019-03-02T02:04:54.597Z,3.80
2019-03-02T02:07:20.609Z,3.80
2019-03-02T02:09:46.921Z,3.90
2019-03-02T02:12:13.453Z,3.80
2019-03-02T02:14:40.033Z,3.80
2019-03-02T02:17:06.364Z,3.80
2019-03-02T02:19:34.770Z,3.80
2019-03-02T02:22:02.367Z,3.80
2019-03-02T02:24:29.346Z,3.80
2019-03-02T02:26:55.648Z,3.80
2019-03-02T02:29:22.000Z,3.80
2019-03-02T02:31:48.578Z,3.70
2019-03-02T02:34:21.085Z,3.80
2019-03-02T02:36:43.124Z,3.70
2019-03-02T02:39:13.743Z,3.60
2019-03-02T02:41:40.075Z,3.70
2019-03-02T02:44:06.420Z,3.70
2019-03-02T02:46:34.372Z,3.70
2019-03-02T02:49:05.354Z,3.70
2019-03-02T02:51:29.355Z,3.70
2019-03-02T02:53:55.656Z,3.70
2019-03-02T02:56:22.255Z,3.70
2019-03-02T02:58:55.792Z,3.70
2019-03-02T03:01:17.032Z,3.70
2019-03-02T03:03:43.597Z,3.70
2019-03-02T03:06:10.177Z,3.80
2019-03-02T03:08:41.819Z,3.90
2019-03-02T03:11:08.397Z,3.90
2019-03-02T03:13:35.906Z,3.80
2019-03-02T03:16:03.957Z,3.80
2019-03-02T03:18:30.549Z,3.80
2019-03-02T03:20:56.876Z,3.80
2019-03-02T03:23:24.829Z,3.80
2019-03-02T03:25:55.980Z,3.90
2019-03-02T03:28:19.893Z,3.90
2019-03-02T03:30:46.187Z,3.90
2019-03-02T03:33:12.557Z,3.90
2019-03-02T03:35:39.068Z,3.90
2019-03-02T03:38:05.479Z,3.90
2019-03-02T03:40:31.806Z,4.00
2019-03-02T03:43:02.980Z,4.00
2019-03-02T03:45:28.247Z,3.90
2019-03-02T03:47:54.619Z,4.00
2019-03-02T03:50:21.188Z,4.10
2019-03-02T03:52:48.983Z,4.10
2019-03-02T03:55:24.275Z,4.20
2019-03-02T03:57:44.804Z,4.10
2019-03-02T04:00:14.118Z,4.20
2019-03-02T04:02:40.442Z,4.30
2019-03-02T04:05:08.604Z,4.20
2019-03-02T04:07:35.855Z,4.00
2019-03-02T04:10:02.669Z,4.00
2019-03-02T04:12:30.099Z,4.00
2019-03-02T04:14:56.920Z,4.10
2019-03-02T04:17:24.660Z,4.00
2019-03-02T04:19:50.998Z,4.20
2019-03-02T04:22:17.713Z,4.10
2019-03-02T04:24:46.265Z,4.10
2019-03-02T04:27:15.582Z,4.30
2019-03-02T04:29:49.103Z,4.30
2019-03-02T04:32:09.039Z,4.20
2019-03-02T04:34:35.354Z,4.40
2019-03-02T04:37:01.668Z,4.40
2019-03-02T04:39:27.989Z,4.30
2019-03-02T04:41:54.295Z,4.30
2019-03-02T04:44:20.632Z,4.30
2019-03-02T04:46:47.617Z,4.10
2019-03-02T04:49:15.570Z,4.00
2019-03-02T04:51:41.956Z,4.00
2019-03-02T04:54:08.282Z,4.00
2019-03-02T04:56:34.893Z,4.00
2019-03-02T04:59:03.031Z,4.00
2019-03-02T05:01:29.658Z,3.80
2019-03-02T05:03:57.232Z,3.90
2019-03-02T05:06:24.638Z,3.90
2019-03-02T05:08:51.255Z,4.00
2019-03-02T05:11:17.596Z,3.80
2019-03-02T05:13:44.169Z,3.80
2019-03-02T05:16:10.780Z,3.80
2019-03-02T05:18:37.138Z,3.70
2019-03-02T05:21:03.483Z,3.70
2019-03-02T05:23:30.544Z,3.80
2019-03-02T05:25:57.893Z,3.90
2019-03-02T05:28:33.482Z,3.90
2019-03-02T05:31:02.672Z,4.00
2019-03-02T05:33:28.903Z,4.10
2019-03-02T05:35:56.140Z,3.90
2019-03-02T05:38:22.474Z,3.90
2019-03-02T05:40:49.090Z,4.00
2019-03-02T05:43:15.685Z,3.90
2019-03-02T05:45:42.348Z,3.90
2019-03-02T05:48:08.716Z,4.00
2019-03-02T05:50:35.324Z,4.00
2019-03-02T05:53:01.663Z,4.00
2019-03-02T05:55:28.260Z,3.90
2019-03-02T05:57:54.574Z,4.00
2019-03-02T06:00:22.616Z,3.90
2019-03-02T06:02:49.260Z,4.00
2019-03-02T06:05:15.563Z,4.00
2019-03-02T06:07:41.914Z,3.90
2019-03-02T06:10:10.714Z,4.00
2019-03-02T06:12:37.401Z,4.00
2019-03-02T06:15:12.884Z,4.10
2019-03-02T06:17:39.438Z,4.00
2019-03-02T06:20:08.370Z,4.00
2019-03-02T06:22:34.681Z,4.10
2019-03-02T06:25:04.273Z,4.10
2019-03-02T06:27:30.584Z,4.10
2019-03-02T06:29:56.924Z,4.10
2019-03-02T06:32:25.954Z,4.10
2019-03-02T06:34:55.438Z,4.20
2019-03-02T06:37:20.791Z,4.30
2019-03-02T06:39:47.578Z,4.20
2019-03-02T06:42:13.942Z,4.10
2019-03-02T06:44:40.299Z,4.20
2019-03-02T06:47:06.647Z,4.20
2019-03-02T06:49:32.970Z,4.30
2019-03-02T06:51:59.380Z,4.30
2019-03-02T06:54:25.736Z,4.10
2019-03-02T06:56:57.855Z,4.40
2019-03-02T06:59:20.585Z,4.30
2019-03-02T07:01:46.893Z,4.40
2019-03-02T07:04:13.469Z,4.40
2019-03-02T07:06:43.490Z,4.50
2019-03-02T07:09:09.609Z,4.40
2019-03-02T07:11:36.649Z,4.40
2019-03-02T07:14:03.198Z,4.60
2019-03-02T07:16:29.530Z,4.80
2019-03-02T07:19:16.758Z,4.70
2019-03-02T07:21:42.957Z,4.80
2019-03-02T07:24:09.380Z,4.80
2019-03-02T07:26:36.009Z,4.60
2019-03-02T07:29:02.328Z,4.60
2019-03-02T07:31:28.846Z,4.80
2019-03-02T07:33:55.417Z,4.90
2019-03-02T07:36:22.076Z,4.80
2019-03-02T07:38:48.424Z,4.90
2019-03-02T07:41:18.758Z,5.00
2019-03-02T07:43:46.323Z,4.80
2019-03-02T07:46:12.738Z,4.90
2019-03-02T07:48:39.135Z,4.70
2019-03-02T07:51:06.563Z,4.80
2019-03-02T07:53:33.021Z,4.90
2019-03-02T07:55:59.370Z,4.90
2019-03-02T07:58:25.840Z,5.20
2019-03-02T08:00:52.191Z,5.20
2019-03-02T08:03:18.563Z,5.40
2019-03-02T08:05:47.033Z,5.50
2019-03-02T08:08:15.054Z,5.30
2019-03-02T08:10:41.769Z,5.30
2019-03-02T08:13:08.376Z,5.30
2019-03-02T08:15:34.765Z,5.50
2019-03-02T08:18:01.410Z,5.40
2019-03-02T08:20:28.108Z,5.50
2019-03-02T08:22:54.764Z,5.70
2019-03-02T08:25:23.298Z,5.60
2019-03-02T08:27:51.489Z,5.40
2019-03-02T08:30:23.177Z,5.40
2019-03-02T08:32:49.928Z,5.40
2019-03-02T08:35:16.232Z,5.50
2019-03-02T08:37:42.549Z,5.70
2019-03-02T08:40:15.295Z,5.90
2019-03-02T08:42:41.730Z,5.90
2019-03-02T08:45:13.372Z,5.60
2019-03-02T08:47:39.965Z,6.00
2019-03-02T08:50:10.098Z,6.40
2019-03-02T08:52:37.691Z,6.00
2019-03-02T08:55:08.076Z,6.30
2019-03-02T08:57:34.403Z,6.00
2019-03-02T09:00:00.723Z,6.40
2019-03-02T09:02:27.389Z,6.60
2019-03-02T09:04:53.733Z,6.60
2019-03-02T09:07:20.465Z,6.50
2019-03-02T09:09:46.776Z,6.50
2019-03-02T09:12:13.137Z,6.80
2019-03-02T09:14:39.441Z,7.10
2019-03-02T09:17:06.086Z,7.00
2019-03-02T09:19:32.614Z,6.90
2019-03-02T09:21:59.028Z,6.70
2019-03-02T09:24:25.386Z,6.60
2019-03-02T09:26:51.698Z,6.60
2019-03-02T09:29:18.300Z,6.50
2019-03-02T09:31:46.796Z,6.50
2019-03-02T09:34:13.219Z,6.40
2019-03-02T09:36:39.884Z,6.30
2019-03-02T09:39:06.326Z,6.50
2019-03-02T09:41:32.915Z,6.60
2019-03-02T09:44:00.988Z,6.60
2019-03-02T09:46:28.316Z,6.70
2019-03-02T09:48:56.974Z,6.90
2019-03-02T09:51:23.274Z,7.10
2019-03-02T09:53:49.663Z,6.80
2019-03-02T09:56:16.144Z,6.70
2019-03-02T09:58:42.625Z,6.80
2019-03-02T10:01:08.989Z,6.80
2019-03-02T10:03:35.417Z,7.10
2019-03-02T10:06:02.581Z,7.10
2019-03-02T10:08:29.006Z,7.20
2019-03-02T10:10:55.705Z,7.10
2019-03-02T10:13:22.044Z,6.80
2019-03-02T10:15:48.378Z,6.70
2019-03-02T10:18:14.911Z,6.90
2019-03-02T10:20:42.628Z,6.80
2019-03-02T10:23:09.777Z,7.00
2019-03-02T10:25:36.378Z,7.10
2019-03-02T10:28:04.807Z,7.10
2019-03-02T10:30:31.283Z,6.90
2019-03-02T10:32:57.929Z,6.80
2019-03-02T10:35:24.358Z,6.70
2019-03-02T10:37:50.746Z,7.00
2019-03-02T10:40:19.514Z,7.00
2019-03-02T10:42:46.164Z,7.10
2019-03-02T10:45:15.149Z,7.40
2019-03-02T10:47:41.492Z,7.50
2019-03-02T10:50:15.078Z,6.90
2019-03-02T10:52:45.821Z,6.80
2019-03-02T10:55:15.182Z,6.60
2019-03-02T10:57:41.784Z,6.90
2019-03-02T11:00:18.313Z,7.20
2019-03-02T11:02:44.756Z,6.90
2019-03-02T11:05:16.768Z,6.80
2019-03-02T11:07:55.270Z,6.90
2019-03-02T11:10:30.684Z,7.00
2019-03-02T11:13:11.170Z,7.20
2019-03-02T11:15:39.698Z,6.80
2019-03-02T11:18:25.770Z,6.90
2019-03-02T11:21:11.801Z,6.80
2019-03-02T11:23:54.714Z,6.80
2019-03-02T11:26:25.385Z,6.70
2019-03-02T11:28:54.102Z,6.80
2019-03-02T11:31:42.024Z,6.70
2019-03-02T11:34:10.349Z,6.80
2019-03-02T11:36:42.095Z,6.50
2019-03-02T11:39:22.395Z,6.70
2019-03-02T11:41:56.844Z,6.80
2019-03-02T11:44:33.831Z,6.80
2019-03-02T11:47:11.289Z,7.00
2019-03-02T11:49:42.216Z,7.10
2019-03-02T11:52:13.394Z,7.00
2019-03-02T11:54:41.935Z,6.90
2019-03-02T11:57:25.212Z,6.60
2019-03-02T12:00:08.318Z,6.50
2019-03-02T12:02:48.783Z,6.40
2019-03-02T12:05:34.823Z,6.50
2019-03-02T12:08:03.032Z,6.50
2019-03-02T12:10:46.327Z,6.50
2019-03-02T12:13:27.680Z,6.70
2019-03-02T12:16:11.763Z,6.70
2019-03-02T12:18:39.985Z,6.30
2019-03-02T12:21:08.564Z,6.20
2019-03-02T12:23:37.643Z,6.40
2019-03-02T12:26:23.384Z,6.50
2019-03-02T12:28:51.578Z,6.60
2019-03-02T12:31:31.998Z,6.50
2019-03-02T12:34:02.923Z,6.60
2019-03-02T12:36:31.139Z,6.80
2019-03-02T12:39:07.288Z,6.70
2019-03-02T12:41:53.749Z,6.80
2019-03-02T12:44:22.465Z,6.70
2019-03-02T12:46:59.286Z,7.00
2019-03-02T12:49:29.539Z,6.90
2019-03-02T12:52:12.212Z,6.80
2019-03-02T12:54:52.953Z,6.50
2019-03-02T12:57:26.955Z,6.90
2019-03-02T12:59:53.647Z,6.80
2019-03-02T13:02:24.781Z,7.00
2019-03-02T13:04:53.303Z,7.00
2019-03-02T13:07:27.828Z,7.00
2019-03-02T13:09:58.914Z,7.10
2019-03-02T13:12:30.343Z,7.00
2019-03-02T13:15:06.049Z,7.00
2019-03-02T13:17:38.433Z,7.10
2019-03-02T13:20:07.408Z,7.10
2019-03-02T13:22:35.992Z,7.20
2019-03-02T13:25:09.968Z,7.00
2019-03-02T13:27:48.361Z,6.60
2019-03-02T13:30:19.330Z,6.50
2019-03-02T13:33:05.901Z,6.70
2019-03-02T13:35:34.138Z,6.60
2019-03-02T13:38:00.486Z,6.70
2019-03-02T13:40:33.646Z,6.80
2019-03-02T13:43:07.810Z,7.00
2019-03-02T13:45:55.384Z,7.00
2019-03-02T13:48:28.668Z,7.10
2019-03-02T13:50:58.152Z,7.10
2019-03-02T13:53:27.240Z,6.60
2019-03-02T13:55:59.633Z,6.40
2019-03-02T13:58:34.124Z,6.70
2019-03-02T14:01:05.353Z,6.90
2019-03-02T14:03:52.308Z,6.90
2019-03-02T14:06:38.728Z,6.70
2019-03-02T14:09:21.507Z,6.60
2019-03-02T14:11:55.481Z,6.40
2019-03-02T14:14:40.995Z,6.30
2019-03-02T14:17:25.351Z,6.50
2019-03-02T14:19:56.502Z,6.30
2019-03-02T14:22:27.638Z,6.60
2019-03-02T14:24:55.881Z,6.60
2019-03-02T14:27:24.107Z,6.70
2019-03-02T14:29:55.235Z,6.70
2019-03-02T14:32:41.610Z,6.70
2019-03-02T14:35:16.480Z,6.80
2019-03-02T14:37:47.910Z,6.70
2019-03-02T14:40:17.003Z,7.00
2019-03-02T14:42:45.612Z,7.00
2019-03-02T14:45:19.628Z,6.90
2019-03-02T14:47:53.517Z,7.00
2019-03-02T14:50:40.346Z,6.80
2019-03-02T14:53:23.418Z,6.50
2019-03-02T14:56:10.160Z,6.50
2019-03-02T14:58:38.893Z,6.50
2019-03-02T15:01:16.281Z,6.50
2019-03-02T15:03:50.825Z,6.50
2019-03-02T15:06:35.727Z,6.50
2019-03-02T15:09:08.918Z,6.60
2019-03-02T15:11:39.989Z,6.60
2019-03-02T15:14:08.976Z,6.60
2019-03-02T15:16:38.185Z,6.60
2019-03-02T15:19:09.122Z,6.50
2019-03-02T15:21:47.709Z,6.50
2019-03-02T15:24:31.812Z,6.60
2019-03-02T15:27:20.163Z,6.50
2019-03-02T15:30:02.102Z,6.60
2019-03-02T15:32:28.651Z,6.70
2019-03-02T15:35:13.457Z,6.70
2019-03-02T15:38:04.360Z,6.80
2019-03-02T15:40:41.300Z,6.80
2019-03-02T15:43:25.909Z,6.70
2019-03-02T15:46:01.062Z,6.90
2019-03-02T15:48:41.278Z,7.00
2019-03-02T15:51:12.574Z,7.00
2019-03-02T15:53:56.136Z,7.00
2019-03-02T15:56:24.388Z,7.00
2019-03-02T15:58:55.659Z,7.00
2019-03-02T16:01:31.381Z,7.00
2019-03-02T16:04:13.662Z,7.10
2019-03-02T16:06:42.164Z,7.10
2019-03-02T16:09:13.364Z,7.20
2019-03-02T16:11:41.689Z,7.20
2019-03-02T16:14:10.514Z,7.00
2019-03-02T16:16:38.978Z,7.00
2019-03-02T16:19:25.082Z,7.10
2019-03-02T16:21:57.313Z,7.10
2019-03-02T16:24:27.721Z,7.10
2019-03-02T16:27:13.713Z,7.10
2019-03-02T16:29:42.972Z,7.20
2019-03-02T16:32:16.741Z,7.20
2019-03-02T16:34:47.439Z,7.20
2019-03-02T16:37:20.384Z,7.30
2019-03-02T16:39:48.585Z,7.30
2019-03-02T16:42:29.180Z,7.20
2019-03-02T16:44:57.667Z,7.20
2019-03-02T16:47:40.916Z,7.30
2019-03-02T16:50:20.411Z,7.30
2019-03-02T16:53:06.534Z,7.20
2019-03-02T16:55:35.005Z,7.20
2019-03-02T16:58:09.471Z,7.20
2019-03-02T17:00:36.088Z,7.10
2019-03-02T17:03:16.394Z,7.20
2019-03-02T17:05:45.306Z,7.20
2019-03-02T17:08:34.869Z,7.20
2019-03-02T17:11:01.448Z,7.20
2019-03-02T17:13:49.642Z,7.00
2019-03-02T17:16:17.864Z,6.90
2019-03-02T17:18:48.829Z,6.90
2019-03-02T17:21:33.939Z,6.90
2019-03-02T17:24:19.932Z,6.90
2019-03-02T17:26:49.392Z,7.00
2019-03-02T17:29:17.519Z,7.00
2019-03-02T17:32:02.205Z,7.20
2019-03-02T17:34:30.438Z,7.30
2019-03-02T17:37:14.996Z,7.20
2019-03-02T17:39:49.200Z,7.20
2019-03-02T17:42:23.472Z,7.30
2019-03-02T17:44:58.938Z,7.40
2019-03-02T17:47:28.813Z,7.30
2019-03-02T17:50:16.175Z,7.40
2019-03-02T17:52:50.294Z,7.40
2019-03-02T17:55:33.266Z,7.40
2019-03-02T17:58:01.975Z,7.30
2019-03-02T18:00:39.164Z,7.30
2019-03-02T18:03:18.339Z,7.20
2019-03-02T18:05:48.922Z,7.10
2019-03-02T18:08:18.431Z,7.00
2019-03-02T18:10:47.904Z,6.90
2019-03-02T18:13:23.149Z,6.80
2019-03-02T18:15:51.377Z,6.80
2019-03-02T18:18:17.708Z,6.70
2019-03-02T18:20:44.545Z,6.60
2019-03-02T18:23:11.008Z,6.60
2019-03-02T18:25:37.651Z,6.70
2019-03-02T18:28:04.087Z,6.60
2019-03-02T18:30:30.795Z,6.50
2019-03-02T18:32:59.314Z,6.60
2019-03-02T18:35:25.854Z,6.50
2019-03-02T18:37:52.179Z,6.60
2019-03-02T18:40:19.520Z,6.60
2019-03-02T18:42:45.837Z,6.70
2019-03-02T18:45:14.104Z,6.60
2019-03-02T18:47:40.504Z,6.60
2019-03-02T18:50:15.627Z,6.60
2019-03-02T18:52:48.136Z,6.50
2019-03-02T18:55:14.500Z,6.50
2019-03-02T18:57:40.806Z,6.50
2019-03-02T19:00:16.599Z,6.50
2019-03-02T19:02:48.233Z,6.50
2019-03-02T19:05:14.078Z,6.40
2019-03-02T19:07:40.702Z,6.40
2019-03-02T19:10:11.199Z,6.50
2019-03-02T19:12:37.785Z,6.50
2019-03-02T19:15:11.189Z,6.50
2019-03-02T19:17:45.881Z,6.50
2019-03-02T19:20:12.679Z,6.60
2019-03-02T19:22:39.204Z,6.50
2019-03-02T19:25:07.729Z,6.50
2019-03-02T19:27:34.048Z,6.60
2019-03-02T19:30:00.472Z,6.60
2019-03-02T19:32:27.071Z,6.60
2019-03-02T19:34:53.458Z,6.60
2019-03-02T19:37:20.914Z,6.70
2019-03-02T19:39:47.463Z,6.70
2019-03-02T19:42:14.159Z,6.60
2019-03-02T19:44:40.487Z,6.70
2019-03-02T19:47:06.818Z,6.70
2019-03-02T19:49:33.438Z,6.60
2019-03-02T19:52:00.110Z,6.50
2019-03-02T19:54:26.729Z,6.50
2019-03-02T19:56:53.340Z,6.40
2019-03-02T19:59:19.955Z,6.40
2019-03-02T20:01:48.263Z,6.40
2019-03-02T20:04:14.948Z,6.40
2019-03-02T20:06:41.370Z,6.40
2019-03-02T20:09:09.070Z,6.40
2019-03-02T20:11:36.989Z,6.40
2019-03-02T20:14:03.389Z,6.40
2019-03-02T20:16:30.003Z,6.50
2019-03-02T20:18:58.309Z,6.50
2019-03-02T20:21:24.844Z,6.50
2019-03-02T20:23:51.242Z,6.50
2019-03-02T20:26:17.817Z,6.60
2019-03-02T20:28:44.291Z,6.60
2019-03-02T20:31:10.861Z,6.60
2019-03-02T20:33:37.287Z,6.60
2019-03-02T20:36:03.612Z,6.60
2019-03-02T20:38:30.049Z,6.60
2019-03-02T20:40:56.472Z,6.60
2019-03-02T20:43:22.890Z,6.70
2019-03-02T20:45:49.478Z,6.60
2019-03-02T20:48:15.827Z,6.70
2019-03-02T20:50:42.253Z,6.70
2019-03-02T20:53:08.805Z,6.70
2019-03-02T20:55:35.398Z,6.70
2019-03-02T20:58:01.812Z,6.80
2019-03-02T21:00:38.308Z,6.80
2019-03-02T21:03:04.994Z,6.80
2019-03-02T21:05:31.592Z,6.90
2019-03-02T21:07:58.131Z,6.90
2019-03-02T21:10:32.409Z,6.90
2019-03-02T21:12:58.957Z,6.90
2019-03-02T21:15:31.249Z,6.90
2019-03-02T21:17:57.831Z,6.80
2019-03-02T21:20:24.541Z,6.90
2019-03-02T21:22:51.213Z,6.90
2019-03-02T21:25:17.629Z,6.80
2019-03-02T21:27:43.982Z,6.80
2019-03-02T21:30:14.688Z,6.80
2019-03-02T21:32:43.447Z,6.90
2019-03-02T21:35:11.156Z,6.90
2019-03-02T21:37:38.164Z,6.90
2019-03-02T21:40:11.876Z,6.90
2019-03-02T21:42:38.302Z,6.90
2019-03-02T21:45:10.276Z,6.80
2019-03-02T21:47:36.978Z,6.90
2019-03-02T21:50:09.023Z,6.90
2019-03-02T21:52:35.367Z,6.80
2019-03-02T21:55:11.549Z,6.90
2019-03-02T21:57:40.060Z,6.90
2019-03-02T22:00:14.462Z,6.90
2019-03-02T22:02:42.195Z,6.90
2019-03-02T22:05:08.628Z,6.90
2019-03-02T22:07:35.195Z,7.00
2019-03-02T22:10:08.486Z,7.00
2019-03-02T22:12:34.832Z,6.90
2019-03-02T22:15:01.490Z,7.00
2019-03-02T22:17:27.852Z,6.90
2019-03-02T22:19:54.284Z,6.80
2019-03-02T22:22:20.623Z,6.70
2019-03-02T22:24:46.956Z,6.60
2019-03-02T22:27:13.554Z,6.50
2019-03-02T22:29:40.162Z,6.50
2019-03-02T22:32:06.720Z,6.40
2019-03-02T22:34:33.326Z,6.40
2019-03-02T22:36:59.629Z,6.40
2019-03-02T22:39:25.996Z,6.50
2019-03-02T22:41:52.583Z,6.50
2019-03-02T22:44:19.152Z,6.60
2019-03-02T22:46:45.469Z,6.60
2019-03-02T22:49:13.107Z,6.60
2019-03-02T22:51:39.764Z,6.70
2019-03-02T22:54:06.353Z,6.70
2019-03-02T22:56:32.792Z,6.60
2019-03-02T22:58:59.113Z,6.60
2019-03-02T23:01:39.885Z,6.60
2019-03-02T23:04:06.460Z,6.60
2019-03-02T23:06:33.125Z,6.60
2019-03-02T23:08:59.722Z,6.60
2019-03-02T23:11:26.055Z,6.70
2019-03-02T23:13:52.702Z,6.70
2019-03-02T23:16:19.120Z,6.80
2019-03-02T23:18:45.432Z,6.80
2019-03-02T23:21:12.029Z,6.80
2019-03-02T23:23:38.340Z,6.90
2019-03-02T23:26:04.832Z,6.90
2019-03-02T23:28:31.155Z,6.90
2019-03-02T23:30:57.713Z,7.00
2019-03-02T23:33:24.481Z,7.00
2019-03-02T23:35:50.783Z,7.00
2019-03-02T23:38:17.364Z,7.10
2019-03-02T23:40:43.958Z,7.10
2019-03-02T23:43:10.241Z,7.10
2019-03-02T23:45:36.559Z,7.10
2019-03-02T23:48:02.867Z,7.20
2019-03-02T23:50:29.219Z,7.30
2019-03-02T23:52:55.766Z,7.30
2019-03-02T23:55:22.374Z,7.30
2019-03-02T23:57:48.949Z,7.40
